createdAt,value
2017-05-16T00:01:39.141Z,17.20
2017-05-16T00:04:07.368Z,17.20
2017-05-16T00:06:36.661Z,17.20
2017-05-16T00:09:04.900Z,17.20
2017-05-16T00:11:33.125Z,17.20
2017-05-16T00:14:01.384Z,17.10
2017-05-16T00:16:29.750Z,17.10
2017-05-16T00:18:57.974Z,17.10
2017-05-16T00:21:26.986Z,17.00
2017-05-16T00:23:55.220Z,17.10
2017-05-16T00:26:23.523Z,17.10
2017-05-16T00:28:51.814Z,17.00
2017-05-16T00:31:20.073Z,17.00
2017-05-16T00:33:49.071Z,16.90
2017-05-16T00:36:17.304Z,17.00
2017-05-16T00:38:45.665Z,17.00
2017-05-16T00:41:13.883Z,16.90
2017-05-16T00:43:42.854Z,16.90
2017-05-16T00:46:11.186Z,17.00
2017-05-16T00:48:39.407Z,17.00
2017-05-16T00:51:07.724Z,17.00
2017-05-16T00:53:35.990Z,16.90
2017-05-16T00:56:04.988Z,16.80
2017-05-16T00:58:33.257Z,16.90
2017-05-16T01:01:02.680Z,16.80
2017-05-16T01:03:31.032Z,16.90
2017-05-16T01:06:00.000Z,16.90
2017-05-16T01:08:28.302Z,16.90
2017-05-16T01:10:57.284Z,17.00
2017-05-16T01:13:26.285Z,17.00
2017-05-16T01:15:55.281Z,16.90
2017-05-16T01:18:24.253Z,17.00
2017-05-16T01:20:52.552Z,16.90
2017-05-16T01:23:20.824Z,16.90
2017-05-16T01:25:49.095Z,16.90
2017-05-16T01:28:18.102Z,16.80
2017-05-16T01:30:46.328Z,16.80
2017-05-16T01:33:14.558Z,16.90
2017-05-16T01:35:42.815Z,16.90
2017-05-16T01:38:11.795Z,16.80
2017-05-16T01:40:40.787Z,16.80
2017-05-16T01:43:09.757Z,16.70
2017-05-16T01:45:37.985Z,16.90
2017-05-16T01:48:06.238Z,16.90
2017-05-16T01:50:35.223Z,16.70
2017-05-16T01:53:04.228Z,16.70
2017-05-16T01:55:32.504Z,16.80
2017-05-16T01:58:00.798Z,16.90
2017-05-16T02:00:29.028Z,16.90
2017-05-16T02:02:57.265Z,16.90
2017-05-16T02:05:25.595Z,16.90
2017-05-16T02:07:53.885Z,16.80
2017-05-16T02:10:22.249Z,16.80
2017-05-16T02:12:51.248Z,16.80
2017-05-16T02:15:20.253Z,16.80
2017-05-16T02:17:48.524Z,16.80
2017-05-16T02:20:16.804Z,16.90
2017-05-16T02:22:45.092Z,16.70
2017-05-16T02:25:13.374Z,16.70
2017-05-16T02:27:41.612Z,16.80
2017-05-16T02:30:10.712Z,16.80
2017-05-16T02:32:38.948Z,16.80
2017-05-16T02:35:07.176Z,16.70
2017-05-16T02:37:35.417Z,16.70
2017-05-16T02:40:04.389Z,16.60
2017-05-16T02:42:32.668Z,16.40
2017-05-16T02:45:00.972Z,16.20
2017-05-16T02:47:29.932Z,16.00
2017-05-16T02:49:58.171Z,15.90
2017-05-16T02:52:26.404Z,15.80
2017-05-16T02:54:55.397Z,15.60
2017-05-16T02:57:24.406Z,15.60
2017-05-16T02:59:52.628Z,15.60
2017-05-16T03:02:20.961Z,15.50
2017-05-16T03:04:49.185Z,15.40
2017-05-16T03:07:17.457Z,15.40
2017-05-16T03:09:45.776Z,15.40
2017-05-16T03:12:14.753Z,15.40
2017-05-16T03:14:43.769Z,15.40
2017-05-16T03:17:12.013Z,15.50
2017-05-16T03:19:40.424Z,15.50
2017-05-16T03:22:08.692Z,15.50
2017-05-16T03:24:37.649Z,15.50
2017-05-16T03:27:05.920Z,15.60
2017-05-16T03:29:34.146Z,15.50
2017-05-16T03:32:02.513Z,15.50
2017-05-16T03:34:30.784Z,15.50
2017-05-16T03:36:59.787Z,15.30
2017-05-16T03:39:28.035Z,15.40
2017-05-16T03:41:57.789Z,15.30
2017-05-16T03:44:26.147Z,15.30
2017-05-16T03:46:54.525Z,15.30
2017-05-16T03:49:22.760Z,15.30
2017-05-16T03:51:50.996Z,15.30
2017-05-16T03:54:19.312Z,15.30
2017-05-16T03:56:47.584Z,15.40
2017-05-16T03:59:15.816Z,15.40
2017-05-16T04:01:44.049Z,15.40
2017-05-16T04:04:12.292Z,15.40
2017-05-16T04:06:40.617Z,15.60
2017-05-16T04:09:08.896Z,15.50
2017-05-16T04:11:37.120Z,15.60
2017-05-16T04:14:05.448Z,15.70
2017-05-16T04:16:33.684Z,15.70
2017-05-16T04:19:02.092Z,15.70
2017-05-16T04:21:31.081Z,15.60
2017-05-16T04:24:00.080Z,15.60
2017-05-16T04:26:28.302Z,15.70
2017-05-16T04:28:56.532Z,15.70
2017-05-16T04:31:24.761Z,15.70
2017-05-16T04:33:53.077Z,15.70
2017-05-16T04:36:21.416Z,15.80
2017-05-16T04:38:49.737Z,15.70
2017-05-16T04:41:18.842Z,15.40
2017-05-16T04:43:47.064Z,15.40
2017-05-16T04:46:15.486Z,15.30
2017-05-16T04:48:44.444Z,15.30
2017-05-16T04:51:12.752Z,15.20
2017-05-16T04:53:41.082Z,15.20
2017-05-16T04:56:09.304Z,15.30
2017-05-16T04:58:38.294Z,15.40
2017-05-16T05:01:07.256Z,15.40
2017-05-16T05:03:35.563Z,15.50
2017-05-16T05:06:03.796Z,15.30
2017-05-16T05:08:32.064Z,15.30
2017-05-16T05:11:00.622Z,15.30
2017-05-16T05:13:28.848Z,15.30
2017-05-16T05:15:57.089Z,15.40
2017-05-16T05:18:25.344Z,15.40
2017-05-16T05:20:53.589Z,15.50
2017-05-16T05:23:22.599Z,15.60
2017-05-16T05:25:50.831Z,15.70
2017-05-16T05:28:19.236Z,15.90
2017-05-16T05:30:48.384Z,15.90
2017-05-16T05:33:16.713Z,16.00
2017-05-16T05:35:44.977Z,16.10
2017-05-16T05:38:13.977Z,16.10
2017-05-16T05:40:42.399Z,16.30
2017-05-16T05:43:10.780Z,16.30
2017-05-16T05:45:39.008Z,16.20
2017-05-16T05:48:08.106Z,16.10
2017-05-16T05:50:36.344Z,16.20
2017-05-16T05:53:04.628Z,16.30
2017-05-16T05:55:32.881Z,16.30
2017-05-16T05:58:01.111Z,16.40
2017-05-16T06:00:29.385Z,16.40
2017-05-16T06:02:57.678Z,16.40
2017-05-16T06:05:26.664Z,16.50
2017-05-16T06:07:54.917Z,16.60
2017-05-16T06:10:23.900Z,16.40
2017-05-16T06:12:52.202Z,16.50
2017-05-16T06:15:20.462Z,16.40
2017-05-16T06:17:49.432Z,16.30
2017-05-16T06:20:17.709Z,16.40
2017-05-16T06:22:46.005Z,16.60
2017-05-16T06:25:14.275Z,16.50
2017-05-16T06:27:43.390Z,16.60
2017-05-16T06:30:11.652Z,16.50
2017-05-16T06:32:40.627Z,16.50
2017-05-16T06:35:09.596Z,16.50
2017-05-16T06:37:37.864Z,16.50
2017-05-16T06:40:06.183Z,16.30
2017-05-16T06:42:35.176Z,16.10
2017-05-16T06:45:04.150Z,16.00
2017-05-16T06:47:32.462Z,15.90
2017-05-16T06:50:00.711Z,15.90
2017-05-16T06:52:29.723Z,15.80
2017-05-16T06:54:58.084Z,15.90
2017-05-16T06:57:27.096Z,15.80
2017-05-16T06:59:55.360Z,16.00
2017-05-16T07:02:23.653Z,15.90
2017-05-16T07:04:51.916Z,16.00
2017-05-16T07:07:20.181Z,16.10
2017-05-16T07:09:49.181Z,16.10
2017-05-16T07:12:17.460Z,16.20
2017-05-16T07:14:45.739Z,16.30
2017-05-16T07:17:13.988Z,16.30
2017-05-16T07:19:43.418Z,16.40
2017-05-16T07:22:11.766Z,16.40
2017-05-16T07:24:40.013Z,16.30
2017-05-16T07:27:08.379Z,16.40
2017-05-16T07:29:36.703Z,16.30
2017-05-16T07:32:05.672Z,16.30
2017-05-16T07:34:33.920Z,16.30
2017-05-16T07:37:02.255Z,16.30
2017-05-16T07:39:30.527Z,16.20
2017-05-16T07:41:59.515Z,16.10
2017-05-16T07:44:28.514Z,16.00
2017-05-16T07:46:56.785Z,16.00
2017-05-16T07:49:25.788Z,16.00
2017-05-16T07:51:54.165Z,16.10
2017-05-16T07:54:22.391Z,16.00
2017-05-16T07:56:50.624Z,16.10
2017-05-16T07:59:18.864Z,16.10
2017-05-16T08:01:47.842Z,16.10
2017-05-16T08:04:16.241Z,16.30
2017-05-16T08:06:45.392Z,16.20
2017-05-16T08:09:13.627Z,16.30
2017-05-16T08:11:41.888Z,16.40
2017-05-16T08:14:10.291Z,16.50
2017-05-16T08:16:38.541Z,16.40
2017-05-16T08:19:07.549Z,16.30
2017-05-16T08:21:35.775Z,16.50
2017-05-16T08:24:04.024Z,16.50
2017-05-16T08:26:32.370Z,16.50
2017-05-16T08:29:00.688Z,16.60
2017-05-16T08:31:28.961Z,16.60
2017-05-16T08:33:57.193Z,16.70
2017-05-16T08:36:26.231Z,16.60
2017-05-16T08:38:54.477Z,16.70
2017-05-16T08:41:22.739Z,16.50
2017-05-16T08:43:51.769Z,16.40
2017-05-16T08:46:19.993Z,16.40
2017-05-16T08:48:49.005Z,16.40
2017-05-16T08:51:17.268Z,16.40
2017-05-16T08:53:46.312Z,16.20
2017-05-16T08:56:14.791Z,16.20
2017-05-16T08:58:43.031Z,16.20
2017-05-16T09:01:11.339Z,16.10
2017-05-16T09:03:39.580Z,16.10
2017-05-16T09:06:07.821Z,16.10
2017-05-16T09:08:36.089Z,16.10
2017-05-16T09:11:04.347Z,16.00
2017-05-16T09:13:32.615Z,16.00
2017-05-16T09:16:00.872Z,15.90
2017-05-16T09:18:29.252Z,15.90
2017-05-16T09:20:57.528Z,15.80
2017-05-16T09:23:25.759Z,15.80
2017-05-16T09:25:54.741Z,15.80
2017-05-16T09:28:23.050Z,15.80
2017-05-16T09:30:51.331Z,15.90
2017-05-16T09:33:19.584Z,16.00
2017-05-16T09:35:48.580Z,16.00
2017-05-16T09:38:17.564Z,16.10
2017-05-16T09:40:46.567Z,16.10
2017-05-16T09:43:15.708Z,15.90
2017-05-16T09:45:44.080Z,16.10
2017-05-16T09:48:12.315Z,16.20
2017-05-16T09:50:41.308Z,16.10
2017-05-16T09:53:10.384Z,16.10
2017-05-16T09:55:39.392Z,16.20
2017-05-16T09:58:08.533Z,16.20
2017-05-16T10:00:36.772Z,16.30
2017-05-16T10:03:05.020Z,16.30
2017-05-16T10:05:33.291Z,16.40
2017-05-16T10:08:01.524Z,16.40
2017-05-16T10:10:30.114Z,16.50
2017-05-16T10:12:58.352Z,16.50
2017-05-16T10:15:26.600Z,16.60
2017-05-16T10:17:55.590Z,16.70
2017-05-16T10:20:23.815Z,16.80
2017-05-16T10:22:52.073Z,16.80
2017-05-16T10:25:20.384Z,16.60
2017-05-16T10:27:48.620Z,16.70
2017-05-16T10:30:16.880Z,16.70
2017-05-16T10:32:45.877Z,16.70
2017-05-16T10:37:43.280Z,16.70
2017-05-16T10:40:11.535Z,16.60
2017-05-16T10:42:39.819Z,16.60
2017-05-16T10:45:08.080Z,16.60
2017-05-16T10:47:36.456Z,16.70
2017-05-16T10:50:05.423Z,17.00
2017-05-16T10:52:33.658Z,17.20
2017-05-16T10:55:01.895Z,17.20
2017-05-16T10:57:30.931Z,17.20
2017-05-16T10:59:59.266Z,17.20
2017-05-16T11:02:28.255Z,17.00
2017-05-16T11:04:56.578Z,17.00
2017-05-16T11:07:24.825Z,17.10
2017-05-16T11:09:53.124Z,17.20
2017-05-16T11:12:21.470Z,17.20
2017-05-16T11:14:49.702Z,17.30
2017-05-16T11:17:17.944Z,17.40
2017-05-16T11:19:46.304Z,17.50
2017-05-16T11:22:14.536Z,17.50
2017-05-16T11:24:42.984Z,17.50
2017-05-16T11:27:11.317Z,17.50
2017-05-16T11:29:40.305Z,17.40
2017-05-16T11:32:08.577Z,17.40
2017-05-16T11:34:36.821Z,17.40
2017-05-16T11:37:05.081Z,17.40
2017-05-16T11:39:33.404Z,17.40
2017-05-16T11:42:02.392Z,17.20
2017-05-16T11:44:31.391Z,17.10
2017-05-16T11:46:59.667Z,17.10
2017-05-16T11:49:28.682Z,16.90
2017-05-16T11:51:56.911Z,16.90
2017-05-16T11:54:25.260Z,17.00
2017-05-16T11:56:53.508Z,17.20
2017-05-16T11:59:21.741Z,17.20
2017-05-16T12:01:50.036Z,17.20
2017-05-16T12:04:19.012Z,17.20
2017-05-16T12:06:48.028Z,17.30
2017-05-16T12:09:16.317Z,17.40
2017-05-16T12:11:44.552Z,17.30
2017-05-16T12:14:12.807Z,17.20
2017-05-16T12:16:41.164Z,17.20
2017-05-16T12:19:09.412Z,17.20
2017-05-16T12:21:37.680Z,17.30
2017-05-16T12:24:05.908Z,17.40
2017-05-16T12:26:34.159Z,17.40
2017-05-16T12:29:02.503Z,17.40
2017-05-16T12:31:31.495Z,17.40
2017-05-16T12:33:59.741Z,17.40
2017-05-16T12:36:28.054Z,17.30
2017-05-16T12:38:56.437Z,17.30
2017-05-16T12:41:24.709Z,17.40
2017-05-16T12:43:52.945Z,17.50
2017-05-16T12:46:21.207Z,17.40
2017-05-16T12:48:49.528Z,17.50
2017-05-16T12:51:17.808Z,17.70
2017-05-16T12:53:46.072Z,17.90
2017-05-16T12:56:15.051Z,17.80
2017-05-16T12:58:43.289Z,17.80
2017-05-16T13:01:11.552Z,17.80
2017-05-16T13:03:39.783Z,17.80
2017-05-16T13:06:08.784Z,17.60
2017-05-16T13:08:37.015Z,17.70
2017-05-16T13:11:05.297Z,17.60
2017-05-16T13:13:33.604Z,17.60
2017-05-16T13:16:02.632Z,17.60
2017-05-16T13:18:30.894Z,17.70
2017-05-16T13:20:59.128Z,17.90
2017-05-16T13:23:27.541Z,18.00
2017-05-16T13:25:55.804Z,18.00
2017-05-16T13:28:24.784Z,18.00
2017-05-16T13:30:53.097Z,18.00
2017-05-16T13:33:21.319Z,17.90
2017-05-16T13:35:49.628Z,18.00
2017-05-16T13:38:17.955Z,18.10
2017-05-16T13:40:46.322Z,18.00
2017-05-16T13:43:14.639Z,18.20
2017-05-16T13:45:42.878Z,18.30
2017-05-16T13:48:11.133Z,18.30
2017-05-16T13:50:39.530Z,18.30
2017-05-16T13:53:07.769Z,18.40
2017-05-16T13:55:36.020Z,18.50
2017-05-16T13:58:05.035Z,18.40
2017-05-16T14:00:33.412Z,18.40
2017-05-16T14:03:01.662Z,18.30
2017-05-16T14:05:30.669Z,18.30
2017-05-16T14:07:58.937Z,18.40
2017-05-16T14:10:27.915Z,18.30
2017-05-16T14:12:56.366Z,18.40
2017-05-16T14:15:24.629Z,18.40
2017-05-16T14:17:52.864Z,18.40
2017-05-16T14:20:21.845Z,18.30
2017-05-16T14:22:50.843Z,18.20
2017-05-16T14:25:19.835Z,17.90
2017-05-16T14:27:48.160Z,17.90
2017-05-16T14:30:16.597Z,18.00
2017-05-16T14:32:44.856Z,18.20
2017-05-16T14:35:13.867Z,18.00
2017-05-16T14:37:42.905Z,18.10
2017-05-16T14:40:11.143Z,18.20
2017-05-16T14:42:39.621Z,18.20
2017-05-16T14:45:07.957Z,18.20
2017-05-16T14:47:36.216Z,18.40
2017-05-16T14:50:04.476Z,18.50
2017-05-16T14:52:32.700Z,18.40
2017-05-16T14:55:01.797Z,18.40
2017-05-16T14:57:30.808Z,18.30
2017-05-16T14:59:59.120Z,18.50
2017-05-16T15:02:27.377Z,18.50
2017-05-16T15:04:56.272Z,18.40
2017-05-16T15:07:24.541Z,18.40
2017-05-16T15:09:52.787Z,18.40
2017-05-16T15:12:21.997Z,18.30
2017-05-16T15:14:50.256Z,18.40
2017-05-16T15:17:19.414Z,18.30
2017-05-16T15:19:47.735Z,18.40
2017-05-16T15:22:16.729Z,18.20
2017-05-16T15:24:45.012Z,18.30
2017-05-16T15:27:13.272Z,18.40
2017-05-16T15:29:42.253Z,18.50
2017-05-16T15:32:10.534Z,18.70
2017-05-16T15:34:39.553Z,18.70
2017-05-16T15:37:07.799Z,19.00
2017-05-16T15:39:36.792Z,19.10
2017-05-16T15:42:05.041Z,19.30
2017-05-16T15:44:33.452Z,19.40
2017-05-16T15:47:01.780Z,19.50
2017-05-16T15:49:30.013Z,19.50
2017-05-16T15:51:59.015Z,19.70
2017-05-16T15:54:27.325Z,19.70
2017-05-16T15:56:55.671Z,19.90
2017-05-16T15:59:24.008Z,20.00
2017-05-16T16:01:52.416Z,19.90
2017-05-16T16:04:20.655Z,20.00
2017-05-16T16:06:48.900Z,19.90
2017-05-16T16:09:17.185Z,19.70
2017-05-16T16:11:45.455Z,19.80
2017-05-16T16:14:13.685Z,19.70
2017-05-16T16:16:41.924Z,19.60
2017-05-16T16:19:10.152Z,19.60
2017-05-16T16:21:38.410Z,19.40
2017-05-16T16:24:06.789Z,19.40
2017-05-16T16:26:35.187Z,19.40
2017-05-16T16:29:03.427Z,19.30
2017-05-16T16:31:32.424Z,19.30
2017-05-16T16:34:01.709Z,19.30
2017-05-16T16:36:29.944Z,19.40
2017-05-16T16:38:58.290Z,19.40
2017-05-16T16:41:26.576Z,19.40
2017-05-16T16:43:54.841Z,19.40
2017-05-16T16:46:23.117Z,19.40
2017-05-16T16:48:51.377Z,19.50
2017-05-16T16:51:20.440Z,19.50
2017-05-16T16:53:48.668Z,19.40
2017-05-16T16:56:16.908Z,19.40
2017-05-16T16:58:45.206Z,19.40
2017-05-16T17:01:14.180Z,19.30
2017-05-16T17:03:43.199Z,19.40
2017-05-16T17:06:11.456Z,19.40
2017-05-16T17:08:40.456Z,19.30
2017-05-16T17:11:09.453Z,19.20
2017-05-16T17:13:37.701Z,19.00
2017-05-16T17:16:06.116Z,19.00
2017-05-16T17:18:34.397Z,19.10
2017-05-16T17:21:02.665Z,19.20
2017-05-16T17:23:31.047Z,19.10
2017-05-16T17:25:59.305Z,19.10
2017-05-16T17:28:27.635Z,19.20
2017-05-16T17:30:55.875Z,19.10
2017-05-16T17:33:24.109Z,19.10
2017-05-16T17:35:52.403Z,19.00
2017-05-16T17:38:21.395Z,18.90
2017-05-16T17:40:50.541Z,18.80
2017-05-16T17:43:18.842Z,18.90
2017-05-16T17:45:47.194Z,19.00
2017-05-16T17:48:15.520Z,18.90
2017-05-16T17:50:43.786Z,18.90
2017-05-16T17:53:12.834Z,18.90
2017-05-16T17:55:41.165Z,19.00
2017-05-16T17:58:10.159Z,19.00
2017-05-16T18:00:39.252Z,19.00
2017-05-16T18:03:08.245Z,19.00
2017-05-16T18:05:37.272Z,18.90
2017-05-16T18:08:05.559Z,19.10
2017-05-16T18:10:33.836Z,19.10
2017-05-16T18:13:02.210Z,19.10
2017-05-16T18:15:30.500Z,19.00
2017-05-16T18:17:58.839Z,18.90
2017-05-16T18:20:27.097Z,19.00
2017-05-16T18:22:55.351Z,18.90
2017-05-16T18:25:24.372Z,18.70
2017-05-16T18:27:52.600Z,18.70
2017-05-16T18:30:20.962Z,18.60
2017-05-16T18:32:49.310Z,18.60
2017-05-16T18:35:17.563Z,18.50
2017-05-16T18:37:46.560Z,18.30
2017-05-16T18:40:15.559Z,18.30
2017-05-16T18:42:43.807Z,18.30
2017-05-16T18:45:12.116Z,18.30
2017-05-16T18:47:40.347Z,18.20
2017-05-16T18:50:08.651Z,18.20
2017-05-16T18:52:38.429Z,18.10
2017-05-16T18:55:06.682Z,18.10
2017-05-16T18:57:35.026Z,18.10
2017-05-16T19:00:03.273Z,18.00
2017-05-16T19:02:31.604Z,18.10
2017-05-16T19:04:59.956Z,18.10
2017-05-16T19:07:28.195Z,18.10
2017-05-16T19:09:56.486Z,18.00
2017-05-16T19:12:25.733Z,17.90
2017-05-16T19:14:54.072Z,18.00
2017-05-16T19:17:22.471Z,17.90
2017-05-16T19:19:50.735Z,18.00
2017-05-16T19:22:19.041Z,18.00
2017-05-16T19:24:47.399Z,17.90
2017-05-16T19:27:15.678Z,17.90
2017-05-16T19:29:43.985Z,17.90
2017-05-16T19:32:12.232Z,17.90
2017-05-16T19:34:40.627Z,17.90
2017-05-16T19:37:08.961Z,17.90
2017-05-16T19:39:37.341Z,17.90
2017-05-16T19:42:05.639Z,18.00
2017-05-16T19:44:33.884Z,17.90
2017-05-16T19:47:02.895Z,17.80
2017-05-16T19:49:31.154Z,17.80
2017-05-16T19:52:00.241Z,17.80
2017-05-16T19:54:29.221Z,17.70
2017-05-16T19:56:57.461Z,17.80
2017-05-16T19:59:25.701Z,17.80
2017-05-16T20:01:53.933Z,17.90
2017-05-16T20:04:22.197Z,17.90
2017-05-16T20:06:50.486Z,17.80
2017-05-16T20:09:18.900Z,17.70
2017-05-16T20:11:47.137Z,17.80
2017-05-16T20:14:15.382Z,17.70
2017-05-16T20:16:43.762Z,17.70
2017-05-16T20:19:12.092Z,17.70
2017-05-16T20:21:41.068Z,17.70
2017-05-16T20:24:09.308Z,17.80
2017-05-16T20:26:37.558Z,17.80
2017-05-16T20:29:05.839Z,17.90
2017-05-16T20:31:34.092Z,17.90
2017-05-16T20:34:02.384Z,17.90
2017-05-16T20:36:30.651Z,17.80
2017-05-16T20:38:58.961Z,17.90
2017-05-16T20:41:27.250Z,17.80
2017-05-16T20:43:55.613Z,17.80
2017-05-16T20:46:23.841Z,17.80
2017-05-16T20:48:52.859Z,17.60
2017-05-16T20:51:21.220Z,17.60
2017-05-16T20:53:49.504Z,17.70
2017-05-16T20:56:17.849Z,17.70
2017-05-16T20:58:46.152Z,17.70
2017-05-16T21:01:14.388Z,17.70
2017-05-16T21:03:42.627Z,17.70
2017-05-16T21:06:11.607Z,17.70
2017-05-16T21:08:39.949Z,17.70
2017-05-16T21:11:08.180Z,17.70
2017-05-16T21:13:36.471Z,17.80
2017-05-16T21:16:04.729Z,17.80
2017-05-16T21:18:33.825Z,17.70
2017-05-16T21:21:02.222Z,17.80
2017-05-16T21:23:30.475Z,17.70
2017-05-16T21:25:59.601Z,17.60
2017-05-16T21:28:27.966Z,17.70
2017-05-16T21:30:56.208Z,17.70
2017-05-16T21:33:25.213Z,17.60
2017-05-16T21:35:53.475Z,17.60
2017-05-16T21:38:21.752Z,17.60
2017-05-16T21:40:50.795Z,17.50
2017-05-16T21:43:19.143Z,17.60
2017-05-16T21:45:47.432Z,17.60
2017-05-16T21:48:15.723Z,17.60
2017-05-16T21:50:43.961Z,17.50
2017-05-16T21:53:12.382Z,17.50
2017-05-16T21:55:40.823Z,17.50
2017-05-16T21:58:09.813Z,17.50
2017-05-16T22:00:38.054Z,17.70
2017-05-16T22:03:06.339Z,17.70
2017-05-16T22:05:34.592Z,17.60
2017-05-16T22:08:02.828Z,17.70
2017-05-16T22:10:31.161Z,17.70
2017-05-16T22:12:59.391Z,17.70
2017-05-16T22:15:27.640Z,17.70
2017-05-16T22:17:55.884Z,17.60
2017-05-16T22:20:24.202Z,17.60
2017-05-16T22:22:52.460Z,17.60
2017-05-16T22:25:21.529Z,17.60
2017-05-16T22:27:49.851Z,17.60
2017-05-16T22:30:18.090Z,17.70
2017-05-16T22:32:46.494Z,17.70
2017-05-16T22:35:14.879Z,17.60
2017-05-16T22:37:43.100Z,17.60
2017-05-16T22:40:11.344Z,17.60
2017-05-16T22:42:39.701Z,17.60
2017-05-16T22:45:07.975Z,17.60
2017-05-16T22:47:36.244Z,17.60
2017-05-16T22:50:04.512Z,17.60
2017-05-16T22:52:33.487Z,17.50
2017-05-16T22:55:01.734Z,17.50
2017-05-16T22:57:30.060Z,17.40
2017-05-16T22:59:59.151Z,17.40
2017-05-16T23:02:28.132Z,17.50
2017-05-16T23:04:57.139Z,17.50
2017-05-16T23:07:26.124Z,17.40
2017-05-16T23:09:55.120Z,17.40
2017-05-16T23:12:24.122Z,17.50
2017-05-16T23:14:52.348Z,17.50
2017-05-16T23:17:20.572Z,17.40
2017-05-16T23:19:48.848Z,17.40
2017-05-16T23:22:17.165Z,17.50
2017-05-16T23:24:45.432Z,17.40
2017-05-16T23:27:13.665Z,17.40
2017-05-16T23:29:42.635Z,17.40
2017-05-16T23:32:10.883Z,17.50
2017-05-16T23:34:39.108Z,17.50
2017-05-16T23:37:08.205Z,17.50
2017-05-16T23:39:36.432Z,17.50
2017-05-16T23:42:04.680Z,17.50
2017-05-16T23:44:33.028Z,17.50
2017-05-16T23:47:01.993Z,17.50
2017-05-16T23:49:30.293Z,17.50
2017-05-16T23:51:59.333Z,17.50
2017-05-16T23:54:27.668Z,17.50
2017-05-16T23:56:55.955Z,17.40
2017-05-16T23:59:24.187Z,17.40
